Time;durP1;ratioP1;P1;durP2;ratioP2;P2;SDS_P1;SDS_P2;PMS_P1;PMS_P2;Temp;Humidity;BMP_temperature;BMP_pressure;BME280_temperature;BME280_humidity;BME280_pressure;Samples;Min_cycle;Max_cycle;Signal;HPM_P1;HPM_P2
2023/08/11 00:00:42;;;;;;;7.13;1.67;;;;;;;17.83;100.00;101843.22;2509373;23;20636;-64
2023/08/11 00:01:43;;;;;;;4.83;1.63;;;;;;;17.83;100.00;101843.97;2509645;23;20159;-64
2023/08/11 00:02:43;;;;;;;5.80;1.77;;;;;;;17.78;100.00;101855.78;2509451;23;20606;-64
2023/08/11 00:03:44;;;;;;;8.17;2.20;;;;;;;17.76;100.00;101846.25;2509563;23;20628;-64
2023/08/11 00:04:44;;;;;;;6.70;1.90;;;;;;;17.72;100.00;101845.59;2509683;23;20510;-64
2023/08/11 00:05:45;;;;;;;3.33;1.67;;;;;;;17.61;100.00;101833.94;2509629;23;20603;-64
2023/08/11 00:06:46;;;;;;;3.57;1.73;;;;;;;17.67;100.00;101849.75;2509387;23;20234;-64
2023/08/11 00:07:50;;;;;;;4.37;2.40;;;;;;;17.66;100.00;101849.44;2509469;23;20387;-64
2023/08/11 00:08:53;;;;;;;3.97;2.27;;;;;;;17.65;100.00;101843.03;2509588;23;20159;-64
2023/08/11 00:09:55;;;;;;;4.77;1.80;;;;;;;17.65;100.00;101850.66;2509531;23;20379;-64
2023/08/11 00:10:55;;;;;;;4.10;2.13;;;;;;;17.64;100.00;101849.88;2509487;23;20896;-64
2023/08/11 00:11:56;;;;;;;3.40;2.20;;;;;;;17.07;100.00;101758.44;2496782;23;20490;-64
2023/08/11 00:12:56;;;;;;;4.70;1.97;;;;;;;17.63;100.00;101847.50;2497141;23;20622;-64
2023/08/11 00:13:57;;;;;;;4.73;2.07;;;;;;;17.63;100.00;101849.06;2508813;23;20515;-64
2023/08/11 00:14:57;;;;;;;3.47;1.93;;;;;;;16.98;100.00;101749.16;2508683;23;20720;-64
2023/08/11 00:15:58;;;;;;;4.00;2.20;;;;;;;17.63;100.00;101848.31;2509497;23;20221;-64
2023/08/11 00:16:58;;;;;;;4.33;2.43;;;;;;;17.54;100.00;101842.59;2509534;23;20178;-64
2023/08/11 00:18:01;;;;;;;3.50;1.87;;;;;;;17.47;100.00;101831.63;2509410;23;20234;-64
2023/08/11 00:19:02;;;;;;;2.73;1.90;;;;;;;16.84;100.00;101735.63;2509703;23;20504;-64
2023/08/11 00:20:05;;;;;;;5.97;2.10;;;;;;;17.64;100.00;101847.06;2509240;23;20380;-64
2023/08/11 00:21:06;;;;;;;3.57;1.80;;;;;;;17.00;100.00;101760.72;2509675;23;20187;-64
2023/08/11 00:22:07;;;;;;;3.63;2.23;;;;;;;17.63;100.00;101853.13;2509544;23;20767;-64
2023/08/11 00:23:08;;;;;;;4.73;2.53;;;;;;;17.63;100.00;101846.28;2509479;23;20510;-64
2023/08/11 00:24:09;;;;;;;3.63;1.70;;;;;;;17.65;100.00;101851.44;2509473;23;20214;-64
2023/08/11 00:25:10;;;;;;;6.07;2.00;;;;;;;17.67;100.00;101846.94;2509639;23;20494;-64
2023/08/11 00:26:11;;;;;;;3.00;1.90;;;;;;;17.65;100.00;101857.03;2509072;23;20577;-64
2023/08/11 00:27:11;;;;;;;4.73;2.10;;;;;;;16.58;100.00;101678.09;2509316;23;20403;-64
2023/08/11 00:28:11;;;;;;;7.47;2.00;;;;;;;17.39;100.00;101801.50;2509449;23;20618;-64
2023/08/11 00:29:12;;;;;;;3.13;1.63;;;;;;;17.68;100.00;101854.13;2509714;23;20641;-64
2023/08/11 00:30:13;;;;;;;5.50;1.80;;;;;;;17.69;100.00;101852.09;2509313;23;20461;-64
2023/08/11 00:31:13;;;;;;;6.40;1.97;;;;;;;17.71;100.00;101852.44;2509644;23;20551;-64
2023/08/11 00:32:14;;;;;;;3.60;2.23;;;;;;;16.67;100.00;101683.78;2509487;23;20387;-64
2023/08/11 00:33:14;;;;;;;5.57;1.70;;;;;;;17.63;100.00;101835.06;2509614;23;20148;-64
2023/08/11 00:34:15;;;;;;;6.20;2.27;;;;;;;17.70;100.00;101842.44;2508859;23;20160;-64
2023/08/11 00:35:16;;;;;;;3.63;1.97;;;;;;;17.14;100.00;101760.25;2508780;23;20266;-64
2023/08/11 00:36:17;;;;;;;3.73;2.10;;;;;;;17.65;100.00;101839.47;2509348;23;20447;-64
2023/08/11 00:37:17;;;;;;;5.53;2.03;;;;;;;17.65;100.00;101847.88;2509397;23;20178;-64
2023/08/11 00:38:20;;;;;;;4.10;2.17;;;;;;;17.62;100.00;101843.94;2509435;23;20159;-64
2023/08/11 00:39:21;;;;;;;6.40;1.90;;;;;;;17.41;100.00;101819.44;2509322;23;20148;-64
2023/08/11 00:40:23;;;;;;;5.57;2.20;;;;;;;17.55;100.00;101838.56;2509098;23;20932;-64
2023/08/11 00:41:23;;;;;;;4.80;1.90;;;;;;;17.52;100.00;101837.44;2496830;23;20163;-64
2023/08/11 00:42:24;;;;;;;6.37;2.40;;;;;;;17.52;100.00;101839.47;2496818;23;20939;-64
2023/08/11 00:43:24;;;;;;;8.93;2.30;;;;;;;17.47;100.00;101836.44;2509509;23;20594;-64
2023/08/11 00:44:26;;;;;;;9.57;2.07;;;;;;;17.40;100.00;101845.09;2509534;23;20212;-64
2023/08/11 00:45:26;;;;;;;8.03;2.43;;;;;;;17.36;100.00;101837.53;2509532;23;20624;-64
2023/08/11 00:46:27;;;;;;;7.73;2.50;;;;;;;17.39;100.00;101843.53;2509375;23;20449;-64
2023/08/11 00:47:28;;;;;;;8.87;2.63;;;;;;;17.41;100.00;101843.84;2509312;23;20156;-64
2023/08/11 00:48:29;;;;;;;11.27;2.33;;;;;;;17.40;100.00;101851.47;2509304;23;20434;-64
2023/08/11 00:49:29;;;;;;;11.47;2.43;;;;;;;17.41;100.00;101844.66;2509581;23;20164;-64
2023/08/11 00:50:30;;;;;;;7.23;2.60;;;;;;;17.40;100.00;101845.09;2509085;23;20159;-64
2023/08/11 00:51:31;;;;;;;4.93;2.30;;;;;;;17.35;100.00;101841.59;2508918;23;20564;-64
2023/08/11 00:52:32;;;;;;;8.37;2.20;;;;;;;17.40;100.00;101851.47;2509416;23;20189;-64
2023/08/11 00:53:33;;;;;;;9.00;2.50;;;;;;;17.38;100.00;101845.50;2509321;23;20389;-64
2023/08/11 00:54:34;;;;;;;6.83;2.50;;;;;;;17.41;100.00;101844.66;2509482;23;20211;-64
2023/08/11 00:55:34;;;;;;;5.90;2.30;;;;;;;17.40;100.00;101848.66;2509504;23;20501;-64
2023/08/11 00:56:35;;;;;;;5.97;2.57;;;;;;;16.58;100.00;101720.06;2508985;23;20157;-64
2023/08/11 00:57:37;;;;;;;8.33;2.53;;;;;;;17.42;100.00;101852.59;2509251;23;20552;-64
2023/08/11 00:58:37;;;;;;;7.03;2.67;;;;;;;17.30;100.00;101832.94;2509502;23;20702;-64
2023/08/11 00:59:38;;;;;;;6.00;2.70;;;;;;;17.39;100.00;101840.72;2509540;23;20794;-64
2023/08/11 01:00:39;;;;;;;5.87;2.50;;;;;;;17.46;100.00;101848.91;2509324;23;20155;-64
2023/08/11 01:01:40;;;;;;;7.13;2.90;;;;;;;17.46;100.00;101852.50;2509335;23;20206;-64
2023/08/11 01:02:42;;;;;;;6.57;2.63;;;;;;;17.49;100.00;101854.38;2496617;23;20285;-64
2023/08/11 01:03:45;;;;;;;4.87;3.07;;;;;;;17.49;100.00;101843.16;2497121;23;20791;-64
2023/08/11 01:04:46;;;;;;;5.97;2.87;;;;;;;17.49;100.00;101842.41;2509402;23;20410;-64
2023/08/11 01:05:57;;;;;;;6.40;3.17;;;;;;;17.53;100.00;101846.66;2509508;23;20376;-64
2023/08/11 01:07:23;;;;;;;5.40;2.73;;;;;;;17.51;100.00;101856.72;2509227;23;20849;-64
2023/08/11 01:09:05;;;;;;;5.90;2.90;;;;;;;17.53;100.00;101844.59;2492994;23;20747;-64
2023/08/11 01:10:30;;;;;;;6.03;2.50;;;;;;;17.53;100.00;101853.00;2505240;23;20397;-64
2023/08/11 01:11:39;;;;;;;5.33;2.90;;;;;;;17.53;100.00;101841.03;2509284;23;20375;-64
2023/08/11 01:12:58;;;;;;;4.60;2.60;;;;;;;17.52;100.00;101842.28;2509542;23;20368;-64
2023/08/11 01:14:06;;;;;;;3.83;2.30;;;;;;;17.49;100.00;101829.16;2509429;23;20386;-64
2023/08/11 01:15:19;;;;;;;6.33;2.80;;;;;;;17.55;100.00;101838.56;2509219;23;20438;-64
2023/08/11 01:16:22;;;;;;;7.73;2.90;;;;;;;17.56;100.00;101839.34;2509243;23;20725;-64
2023/08/11 01:17:24;;;;;;;5.93;2.50;;;;;;;17.17;100.00;101788.13;2509218;23;20388;-64
2023/08/11 01:18:25;;;;;;;3.63;2.17;;;;;;;17.55;100.00;101841.34;2509532;23;20854;-64
2023/08/11 01:19:32;;;;;;;3.60;2.13;;;;;;;17.56;100.00;101837.31;2509387;23;20770;-64
2023/08/11 01:20:34;;;;;;;4.97;2.33;;;;;;;17.60;100.00;101840.78;2509298;23;20555;-64
2023/08/11 01:21:39;;;;;;;3.33;2.40;;;;;;;17.61;100.00;101838.78;2509486;23;20387;-64
2023/08/11 01:22:43;;;;;;;3.70;2.47;;;;;;;17.60;100.00;101831.63;2509523;23;20387;-64
2023/08/11 01:23:44;;;;;;;3.93;2.57;;;;;;;17.61;100.00;101831.13;2509366;23;20469;-64
2023/08/11 01:24:45;;;;;;;3.60;2.50;;;;;;;17.36;100.00;101786.34;2509380;23;20384;-64
2023/08/11 01:25:47;;;;;;;6.10;2.63;;;;;;;17.07;100.00;101746.47;2509499;23;20511;-64
2023/08/11 01:26:48;;;;;;;3.83;2.17;;;;;;;17.70;100.00;101825.63;2509162;23;20383;-64
2023/08/11 01:27:57;;;;;;;3.80;2.40;;;;;;;17.67;100.00;101836.97;2509374;23;20446;-64
2023/08/11 01:28:57;;;;;;;5.30;2.40;;;;;;;17.63;100.00;101829.47;2509358;23;20282;-64
2023/08/11 01:29:58;;;;;;;4.13;2.43;;;;;;;17.63;100.00;101835.06;2509139;23;20376;-64
2023/08/11 01:30:58;;;;;;;3.50;2.10;;;;;;;17.70;100.00;101838.88;2509264;23;20175;-64
2023/08/11 01:31:59;;;;;;;7.07;2.20;;;;;;;17.70;100.00;101838.88;2509282;23;20153;-64
2023/08/11 01:32:59;;;;;;;4.37;2.20;;;;;;;17.70;100.00;101841.69;2496647;23;20161;-64
2023/08/11 01:33:59;;;;;;;7.40;2.57;;;;;;;17.70;100.00;101838.88;2496723;23;20686;-64
2023/08/11 01:35:00;;;;;;;6.57;2.70;;;;;;;17.71;100.00;101830.00;2509094;23;20244;-64
2023/08/11 01:36:00;;;;;;;7.57;2.50;;;;;;;17.67;100.00;101838.53;2509121;23;20154;-64
2023/08/11 01:37:01;;;;;;;3.30;2.10;;;;;;;17.68;100.00;101839.34;2509550;23;20158;-64
2023/08/11 01:38:02;;;;;;;3.97;2.73;;;;;;;17.69;100.00;101835.28;2509083;23;20191;-64
2023/08/11 01:39:07;;;;;;;5.87;2.20;;;;;;;17.68;100.00;101842.91;2509389;23;20162;-64
2023/08/11 01:40:11;;;;;;;5.23;2.20;;;;;;;17.68;100.00;101845.69;2509096;23;20512;-64
2023/08/11 01:41:11;;;;;;;4.63;2.30;;;;;;;17.67;100.00;101836.97;2509277;23;20383;-64
2023/08/11 01:42:12;;;;;;;9.20;2.93;;;;;;;17.67;100.00;101834.97;2509249;23;20392;-64
2023/08/11 01:43:15;;;;;;;8.17;2.33;;;;;;;17.67;100.00;101843.38;2509248;23;20497;-64
2023/08/11 01:44:15;;;;;;;9.03;2.30;;;;;;;17.68;100.00;101840.09;2509446;23;20601;-64
2023/08/11 01:45:17;;;;;;;4.83;2.27;;;;;;;17.68;100.00;101839.34;2509265;23;20463;-64
2023/08/11 01:46:18;;;;;;;8.80;2.43;;;;;;;17.41;100.00;101791.41;2509015;23;20161;-64
2023/08/11 01:47:19;;;;;;;4.57;2.03;;;;;;;17.67;100.00;101834.97;2509074;23;20428;-64
2023/08/11 01:48:21;;;;;;;5.20;2.13;;;;;;;17.68;100.00;101820.47;2509408;23;20155;-64
2023/08/11 01:49:27;;;;;;;7.37;2.10;;;;;;;17.46;100.00;101798.44;2509497;23;20889;-64
2023/08/11 01:50:28;;;;;;;4.17;2.20;;;;;;;17.67;100.00;101855.34;2509047;23;20383;-64
2023/08/11 01:51:29;;;;;;;5.80;2.10;;;;;;;17.70;100.00;101827.66;2509337;23;20718;-64
2023/08/11 01:52:41;;;;;;;6.90;2.43;;;;;;;17.68;100.00;101836.53;2508833;23;20405;-64
2023/08/11 01:53:41;;;;;;;5.83;2.40;;;;;;;17.67;100.00;101834.16;2508974;23;20144;-64
2023/08/11 01:54:43;;;;;;;5.73;2.33;;;;;;;16.79;100.00;101688.59;2496467;23;20508;-64
2023/08/11 01:55:44;;;;;;;9.47;2.60;;;;;;;17.09;100.00;101744.00;2496762;23;20300;-64
2023/08/11 01:56:45;;;;;;;5.57;2.17;;;;;;;17.67;100.00;101831.38;2508845;23;20432;-64
2023/08/11 01:57:46;;;;;;;8.73;2.03;;;;;;;17.41;100.00;101794.22;2509140;23;20817;-64
2023/08/11 01:58:47;;;;;;;7.57;1.90;;;;;;;17.65;100.00;101840.22;2509199;23;20387;-64
2023/08/11 01:59:47;;;;;;;6.57;2.00;;;;;;;17.65;100.00;101831.03;2509067;23;20498;-64
2023/08/11 02:00:48;;;;;;;7.83;2.50;;;;;;;17.63;100.00;101832.25;2509079;23;20219;-64
2023/08/11 02:01:48;;;;;;;11.27;2.47;;;;;;;17.63;100.00;101836.31;2509195;23;20154;-64
2023/08/11 02:02:49;;;;;;;7.53;2.00;;;;;;;17.62;100.00;101832.72;2509018;23;20151;-64
2023/08/11 02:03:49;;;;;;;9.20;2.10;;;;;;;17.61;100.00;101836.75;2509212;23;20183;-64
2023/08/11 02:04:49;;;;;;;6.30;2.13;;;;;;;17.59;100.00;101833.63;2509219;23;20151;-64
2023/08/11 02:05:50;;;;;;;5.20;2.07;;;;;;;17.58;100.00;101832.81;2509092;23;20155;-64
2023/08/11 02:06:50;;;;;;;5.43;2.00;;;;;;;17.57;100.00;101829.69;2509119;23;20604;-64
2023/08/11 02:07:51;;;;;;;7.37;2.00;;;;;;;17.58;100.00;101832.06;2509087;23;20208;-64
2023/08/11 02:08:52;;;;;;;7.37;2.13;;;;;;;17.56;100.00;101834.50;2509158;23;20187;-64
2023/08/11 02:09:54;;;;;;;4.87;1.97;;;;;;;17.53;100.00;101835.44;2509241;23;20384;-64
2023/08/11 02:10:54;;;;;;;8.33;1.97;;;;;;;17.42;100.00;101832.97;2509150;23;20157;-65
2023/08/11 02:11:55;;;;;;;8.17;2.30;;;;;;;17.37;100.00;101824.34;2509157;23;20450;-66
2023/08/11 02:12:55;;;;;;;7.10;2.30;;;;;;;17.37;100.00;101832.75;2509120;23;20163;-66
2023/08/11 02:13:55;;;;;;;11.03;2.30;;;;;;;17.33;100.00;101829.25;2508873;23;20152;-66
2023/08/11 02:14:56;;;;;;;7.30;2.70;;;;;;;17.29;100.00;101826.56;2508941;23;20179;-66
2023/08/11 02:15:57;;;;;;;6.30;2.30;;;;;;;17.27;100.00;101823.44;2509025;23;20180;-66
2023/08/11 02:16:57;;;;;;;9.83;1.97;;;;;;;17.28;100.00;101832.63;2509006;23;20615;-66
2023/08/11 02:17:58;;;;;;;6.50;2.37;;;;;;;17.24;100.00;101832.75;2509090;23;20623;-66
2023/08/11 02:18:59;;;;;;;4.67;2.23;;;;;;;16.13;100.00;101658.66;2509285;23;20546;-66
2023/08/11 02:20:00;;;;;;;6.43;2.17;;;;;;;17.19;100.00;101826.91;2496307;23;20163;-66
2023/08/11 02:21:01;;;;;;;4.53;2.00;;;;;;;16.83;100.00;101776.84;2496741;23;20604;-66
2023/08/11 02:22:02;;;;;;;5.60;2.27;;;;;;;17.12;100.00;101830.72;2508975;23;20443;-66
2023/08/11 02:23:03;;;;;;;3.90;2.23;;;;;;;17.10;100.00;101830.38;2509105;23;20472;-66
2023/08/11 02:24:03;;;;;;;3.37;2.10;;;;;;;17.09;100.00;101825.22;2508750;23;20156;-66
2023/08/11 02:25:04;;;;;;;4.63;2.10;;;;;;;17.06;100.00;101824.09;2509171;23;20160;-66
2023/08/11 02:26:05;;;;;;;3.93;2.23;;;;;;;16.99;100.00;101815.13;2508810;23;20153;-66
2023/08/11 02:27:09;;;;;;;5.27;2.20;;;;;;;17.01;100.00;101832.31;2509162;23;20185;-66
2023/08/11 02:28:09;;;;;;;6.10;2.43;;;;;;;16.99;100.00;101835.53;2509056;23;20888;-66
2023/08/11 02:29:09;;;;;;;6.70;2.47;;;;;;;16.79;100.00;101806.16;2509225;23;20789;-66
2023/08/11 02:30:11;;;;;;;3.17;1.97;;;;;;;16.90;100.00;101829.81;2509042;23;20665;-66
2023/08/11 02:31:11;;;;;;;7.93;2.60;;;;;;;16.90;100.00;101829.81;2509335;23;20158;-66
2023/08/11 02:32:12;;;;;;;3.03;2.27;;;;;;;16.94;100.00;101833.28;2509199;23;20380;-66
2023/08/11 02:33:13;;;;;;;6.33;2.73;;;;;;;16.30;100.00;101730.06;2509007;23;20150;-66
2023/08/11 02:34:13;;;;;;;4.00;2.17;;;;;;;16.98;100.00;101833.19;2508483;23;20155;-66
2023/08/11 02:35:14;;;;;;;6.17;2.23;;;;;;;16.98;100.00;101852.78;2509001;23;20266;-66
2023/08/11 02:36:15;;;;;;;7.80;2.23;;;;;;;16.58;100.00;101768.44;2508911;23;20629;-66
2023/08/11 02:37:15;;;;;;;3.43;2.00;;;;;;;16.98;100.00;101836.78;2509036;23;20776;-66
2023/08/11 02:38:15;;;;;;;6.87;2.13;;;;;;;16.98;100.00;101836.78;2509017;23;20152;-66
2023/08/11 02:39:16;;;;;;;4.97;2.20;;;;;;;16.97;100.00;101828.81;2509327;23;20606;-66
2023/08/11 02:40:19;;;;;;;4.40;2.30;;;;;;;17.02;100.00;101833.88;2508912;23;20155;-66
2023/08/11 02:41:20;;;;;;;4.30;2.10;;;;;;;17.05;100.00;101835.78;2509193;23;20162;-66
2023/08/11 02:42:20;;;;;;;3.83;2.20;;;;;;;17.06;100.00;101842.94;2509260;23;20377;-66
2023/08/11 02:43:21;;;;;;;3.60;2.23;;;;;;;16.95;100.00;101812.47;2509200;23;20153;-66
2023/08/11 02:44:22;;;;;;;4.90;2.10;;;;;;;17.08;100.00;101827.25;2508894;23;20218;-66
2023/08/11 02:45:23;;;;;;;5.63;2.30;;;;;;;17.08;100.00;101832.06;2509132;23;20561;-66
2023/08/11 02:46:23;;;;;;;5.00;2.10;;;;;;;17.09;100.00;101836.44;2508791;23;20156;-66
2023/08/11 02:47:24;;;;;;;4.27;2.23;;;;;;;17.09;100.00;101828.03;2508938;23;20410;-66
2023/08/11 02:48:24;;;;;;;6.77;2.47;;;;;;;17.07;100.00;101836.88;2509267;23;20152;-66
2023/08/11 02:49:25;;;;;;;6.80;2.60;;;;;;;17.00;100.00;101837.09;2509179;23;20151;-66
2023/08/11 02:50:25;;;;;;;6.13;2.53;;;;;;;17.02;100.00;101839.47;2508875;23;20150;-66
2023/08/11 02:51:25;;;;;;;4.83;2.40;;;;;;;16.42;100.00;101747.38;2509010;23;20222;-66
2023/08/11 02:52:26;;;;;;;4.53;2.47;;;;;;;17.05;100.00;101842.16;2509215;23;20152;-66
2023/08/11 02:53:26;;;;;;;8.73;2.70;;;;;;;17.04;100.00;101848.19;2508789;23;20175;-66
2023/08/11 02:54:27;;;;;;;7.00;3.03;;;;;;;17.04;100.00;101846.19;2509020;23;20673;-66
2023/08/11 02:55:27;;;;;;;11.10;2.80;;;;;;;17.02;100.00;101854.25;2508915;23;20670;-66
2023/08/11 02:56:28;;;;;;;8.50;2.80;;;;;;;16.98;100.00;101859.19;2508674;23;20573;-66
2023/08/11 02:57:28;;;;;;;6.83;2.43;;;;;;;16.96;100.00;101858.06;2509067;23;20156;-66
2023/08/11 02:58:28;;;;;;;9.73;2.50;;;;;;;16.97;100.00;101862.44;2508986;23;20242;-64
2023/08/11 02:59:29;;;;;;;8.70;2.37;;;;;;;16.97;100.00;101859.63;2509205;23;20166;-64
2023/08/11 03:00:29;;;;;;;7.20;2.50;;;;;;;16.99;100.00;101854.34;2508761;23;20171;-64
2023/08/11 03:01:32;;;;;;;5.13;2.50;;;;;;;16.98;100.00;101858.38;2509152;23;20591;-64
2023/08/11 03:02:32;;;;;;;8.70;2.50;;;;;;;16.99;100.00;101852.34;2508910;23;20178;-64
2023/08/11 03:03:33;;;;;;;9.50;2.97;;;;;;;16.81;100.00;101829.69;2509415;23;20890;-64
2023/08/11 03:04:36;;;;;;;9.03;2.73;;;;;;;17.01;100.00;101854.69;2509757;23;20504;-64
2023/08/11 03:05:36;;;;;;;8.73;2.90;;;;;;;16.83;100.00;101831.28;2509707;23;20184;-64
2023/08/11 03:06:37;;;;;;;7.40;2.80;;;;;;;16.98;100.00;101855.59;2509359;23;20877;-64
2023/08/11 03:07:40;;;;;;;5.50;2.60;;;;;;;17.00;100.00;101850.34;2509651;23;20549;-64
2023/08/11 03:08:40;;;;;;;10.53;2.97;;;;;;;17.00;100.00;101850.34;2509644;23;20152;-64
2023/08/11 03:09:41;;;;;;;5.20;2.30;;;;;;;17.00;100.00;101859.50;2509867;23;20838;-64
2023/08/11 03:10:42;;;;;;;5.83;2.17;;;;;;;17.03;100.00;101857.84;2509562;23;20187;-64
2023/08/11 03:11:42;;;;;;;8.37;2.83;;;;;;;17.03;100.00;101849.44;2509784;23;20181;-64
2023/08/11 03:12:43;;;;;;;10.00;2.90;;;;;;;17.06;100.00;101848.53;2509711;23;20288;-64
2023/08/11 03:13:43;;;;;;;8.13;2.83;;;;;;;17.07;100.00;101850.09;2509856;23;20155;-64
2023/08/11 03:14:44;;;;;;;7.87;3.17;;;;;;;17.03;100.00;101855.03;2509615;23;20158;-64
2023/08/11 03:15:44;;;;;;;7.67;2.60;;;;;;;17.00;100.00;101844.75;2509627;23;20616;-64
2023/08/11 03:16:44;;;;;;;6.53;2.60;;;;;;;16.68;100.00;101814.91;2509605;23;20159;-64
2023/08/11 03:17:45;;;;;;;10.33;2.73;;;;;;;16.94;100.00;101852.09;2509706;23;20213;-64
2023/08/11 03:18:45;;;;;;;8.73;2.77;;;;;;;16.90;100.00;101857.06;2509830;23;20156;-64
2023/08/11 03:19:46;;;;;;;7.77;2.60;;;;;;;16.91;100.00;101858.63;2509718;23;20182;-64
2023/08/11 03:20:47;;;;;;;8.80;2.20;;;;;;;16.85;100.00;101854.81;2509672;23;20153;-64
2023/08/11 03:21:47;;;;;;;5.97;2.87;;;;;;;16.90;100.00;101862.66;2509895;23;20159;-64
2023/08/11 03:22:48;;;;;;;6.40;2.30;;;;;;;16.92;100.00;101860.97;2509742;23;20385;-64
2023/08/11 03:23:49;;;;;;;4.27;2.10;;;;;;;16.87;100.00;101863.53;2509882;23;20162;-64
2023/08/11 03:24:49;;;;;;;7.53;2.23;;;;;;;16.69;100.00;101827.66;2509758;23;20166;-64
2023/08/11 03:25:49;;;;;;;4.97;2.73;;;;;;;16.89;100.00;101852.66;2509485;23;20181;-64
2023/08/11 03:26:50;;;;;;;8.47;2.67;;;;;;;16.92;100.00;101860.97;2509509;23;20162;-64
2023/08/11 03:27:50;;;;;;;3.57;2.27;;;;;;;16.94;100.00;101857.69;2509846;23;20182;-64
2023/08/11 03:28:51;;;;;;;4.87;2.37;;;;;;;16.48;100.00;101791.13;2509861;23;20163;-64
2023/08/11 03:29:51;;;;;;;4.83;2.20;;;;;;;16.93;100.00;101856.13;2509723;23;20331;-64
2023/08/11 03:30:51;;;;;;;3.77;2.30;;;;;;;16.94;100.00;101858.50;2509628;23;20190;-64
2023/08/11 03:31:52;;;;;;;4.33;2.40;;;;;;;16.98;100.00;101861.19;2509891;23;20182;-64
2023/08/11 03:32:53;;;;;;;7.27;2.70;;;;;;;16.93;100.00;101848.53;2509630;23;20228;-64
2023/08/11 03:33:53;;;;;;;9.57;2.70;;;;;;;16.52;100.00;101786.22;2509745;23;20209;-64
2023/08/11 03:34:54;;;;;;;8.53;2.67;;;;;;;16.98;100.00;101859.19;2509483;23;20503;-64
2023/08/11 03:35:54;;;;;;;8.83;2.70;;;;;;;16.74;100.00;101823.50;2509397;23;20163;-64
2023/08/11 03:36:54;;;;;;;10.63;3.20;;;;;;;17.00;100.00;101855.94;2509458;23;20152;-64
2023/08/11 03:37:55;;;;;;;6.47;2.80;;;;;;;16.96;100.00;101864.44;2509682;23;20159;-64
2023/08/11 03:38:55;;;;;;;9.87;2.70;;;;;;;16.92;100.00;101858.16;2509482;23;20183;-64
2023/08/11 03:39:55;;;;;;;9.33;2.63;;;;;;;16.91;100.00;101856.56;2497054;23;20164;-64
2023/08/11 03:40:56;;;;;;;10.23;3.10;;;;;;;16.89;100.00;101861.84;2496926;23;20160;-64
2023/08/11 03:41:56;;;;;;;10.47;3.10;;;;;;;16.92;100.00;101854.56;2509804;23;20165;-64
2023/08/11 03:42:57;;;;;;;7.63;2.97;;;;;;;16.58;100.00;101804.81;2509656;23;20209;-64
2023/08/11 03:43:57;;;;;;;10.10;2.80;;;;;;;16.91;100.00;101862.19;2509608;23;20155;-64
2023/08/11 03:44:58;;;;;;;8.30;3.20;;;;;;;16.93;100.00;101859.72;2509761;23;20595;-64
2023/08/11 03:45:58;;;;;;;7.00;3.00;;;;;;;16.92;100.00;101863.78;2509404;23;20605;-64
2023/08/11 03:46:58;;;;;;;7.30;3.23;;;;;;;16.91;100.00;101864.22;2509762;23;20154;-64
2023/08/11 03:47:59;;;;;;;12.03;2.50;;;;;;;16.95;100.00;101864.91;2509548;23;20156;-64
2023/08/11 03:48:59;;;;;;;7.83;3.00;;;;;;;16.98;100.00;101855.59;2509813;23;20161;-65
2023/08/11 03:50:00;;;;;;;6.13;2.93;;;;;;;16.90;100.00;101845.84;2509714;23;20601;-66
2023/08/11 03:51:01;;;;;;;6.20;2.50;;;;;;;16.96;100.00;101864.44;2509549;23;20166;-66
2023/08/11 03:52:01;;;;;;;7.80;2.80;;;;;;;17.00;100.00;101851.09;2509651;23;20154;-66
2023/08/11 03:53:03;;;;;;;5.87;2.60;;;;;;;17.03;100.00;101860.63;2509546;23;20937;-66
2023/08/11 03:54:03;;;;;;;9.57;2.73;;;;;;;17.02;100.00;101856.28;2509377;23;20724;-66
2023/08/11 03:55:09;;;;;;;6.90;2.60;;;;;;;16.38;100.00;101747.41;2509507;23;20821;-66
2023/08/11 03:56:09;;;;;;;5.47;2.53;;;;;;;16.73;100.00;101821.19;2509442;23;20143;-66
2023/08/11 03:57:10;;;;;;;6.13;2.73;;;;;;;17.06;100.00;101863.31;2509354;23;20901;-66
2023/08/11 03:58:12;;;;;;;6.67;2.40;;;;;;;17.05;100.00;101861.00;2509706;23;20500;-66
2023/08/11 03:59:13;;;;;;;4.60;2.27;;;;;;;17.07;100.00;101853.69;2509546;23;20178;-66
2023/08/11 04:00:14;;;;;;;5.93;2.60;;;;;;;17.09;100.00;101850.44;2509445;23;20392;-66
2023/08/11 04:01:15;;;;;;;7.80;2.57;;;;;;;17.10;100.00;101852.00;2509580;23;20154;-66
2023/08/11 04:02:16;;;;;;;7.83;2.80;;;;;;;17.02;100.00;101840.25;2509560;23;20387;-66
2023/08/11 04:03:16;;;;;;;4.73;2.20;;;;;;;17.13;100.00;101854.72;2509409;23;20231;-66
2023/08/11 04:04:17;;;;;;;5.43;2.73;;;;;;;17.12;100.00;101860.75;2509464;23;20387;-66
2023/08/11 04:05:17;;;;;;;5.97;2.30;;;;;;;17.01;100.00;101840.69;2509522;23;20230;-66
2023/08/11 04:06:18;;;;;;;7.03;2.40;;;;;;;16.98;100.00;101833.19;2509582;23;20159;-66
2023/08/11 04:07:18;;;;;;;6.10;2.37;;;;;;;17.15;100.00;101863.44;2509371;23;20149;-66
2023/08/11 04:08:20;;;;;;;10.17;2.90;;;;;;;17.17;100.00;101860.19;2509643;23;20175;-66
2023/08/11 04:09:20;;;;;;;10.40;2.87;;;;;;;17.17;100.00;101855.34;2509635;23;20154;-66
2023/08/11 04:10:21;;;;;;;7.23;2.83;;;;;;;17.19;100.00;101860.53;2509486;23;20380;-67
2023/08/11 04:11:22;;;;;;;11.13;2.90;;;;;;;17.19;100.00;101864.13;2509680;23;20587;-66
2023/08/11 04:12:22;;;;;;;9.63;3.40;;;;;;;17.17;100.00;101863.00;2509540;23;20156;-66
2023/08/11 04:13:22;;;;;;;4.03;2.63;;;;;;;17.19;100.00;101869.72;2509447;23;20148;-66
2023/08/11 04:14:23;;;;;;;7.73;3.23;;;;;;;17.22;100.00;101856.84;2509538;23;20153;-66
2023/08/11 04:15:24;;;;;;;5.97;3.00;;;;;;;16.99;100.00;101840.34;2496630;23;20223;-66
2023/08/11 04:16:24;;;;;;;8.73;5.00;;;;;;;17.23;100.00;101861.19;2497009;23;20156;-66
2023/08/11 04:17:26;;;;;;;6.60;3.27;;;;;;;17.16;100.00;101858.63;2509355;23;20155;-66
2023/08/11 04:18:26;;;;;;;9.37;3.67;;;;;;;16.99;100.00;101832.75;2509582;23;20591;-66
2023/08/11 04:19:27;;;;;;;10.57;3.20;;;;;;;17.21;100.00;101860.88;2509609;23;20792;-66
2023/08/11 04:20:28;;;;;;;7.60;4.23;;;;;;;17.25;100.00;101865.13;2509263;23;20183;-66
2023/08/11 04:21:29;;;;;;;6.97;4.30;;;;;;;17.29;100.00;101865.81;2509456;23;20231;-65
2023/08/11 04:22:29;;;;;;;8.90;4.43;;;;;;;17.30;100.00;101872.16;2509496;23;20388;-66
2023/08/11 04:23:30;;;;;;;6.17;4.70;;;;;;;17.13;100.00;101849.13;2509544;23;20181;-66
2023/08/11 04:24:30;;;;;;;8.30;5.27;;;;;;;17.29;100.00;101867.81;2509647;23;20152;-66
2023/08/11 04:25:31;;;;;;;8.33;5.00;;;;;;;17.29;100.00;101862.22;2509517;23;20212;-66
2023/08/11 04:26:33;;;;;;;8.93;5.60;;;;;;;17.31;100.00;101871.72;2509092;23;20167;-66
2023/08/11 04:27:33;;;;;;;9.37;5.23;;;;;;;17.32;100.00;101869.72;2496571;23;20212;-66
2023/08/11 04:28:36;;;;;;;7.20;4.70;;;;;;;17.34;100.00;101867.25;2496705;23;20943;-66
2023/08/11 04:29:36;;;;;;;10.17;4.83;;;;;;;17.38;100.00;101876.34;2509569;23;20155;-66
2023/08/11 04:30:37;;;;;;;7.83;4.77;;;;;;;17.44;100.00;101874.56;2509068;23;20406;-66
2023/08/11 04:31:38;;;;;;;8.60;5.20;;;;;;;17.37;100.00;101864.31;2509624;23;20633;-66
2023/08/11 04:32:38;;;;;;;8.43;4.80;;;;;;;17.12;100.00;101825.09;2509537;23;20482;-66
2023/08/11 04:33:39;;;;;;;8.90;5.43;;;;;;;17.50;100.00;101883.19;2509378;23;20680;-66
2023/08/11 04:34:39;;;;;;;14.43;5.57;;;;;;;17.54;100.00;101879.03;2496588;23;20167;-66
2023/08/11 04:35:40;;;;;;;10.43;5.10;;;;;;;17.62;100.00;101883.19;2496876;23;20523;-66
2023/08/11 04:36:40;;;;;;;9.00;3.97;;;;;;;17.47;100.00;101858.88;2508894;23;20678;-66
2023/08/11 04:37:41;;;;;;;6.03;3.80;;;;;;;17.17;100.00;101810.53;2509338;23;20155;-66
2023/08/11 04:38:41;;;;;;;9.93;4.53;;;;;;;17.41;100.00;101843.84;2508945;23;20603;-66
2023/08/11 04:39:42;;;;;;;8.90;4.63;;;;;;;17.36;100.00;101829.13;2509484;23;20518;-66
2023/08/11 04:40:42;;;;;;;6.53;4.47;;;;;;;17.46;100.00;101835.69;2509073;23;20489;-66
2023/08/11 04:41:43;;;;;;;8.90;4.23;;;;;;;17.77;100.00;101882.25;2509460;23;20615;-66
2023/08/11 04:42:44;;;;;;;8.20;4.40;;;;;;;17.78;100.00;101883.81;2509409;23;20524;-66